createdAt,value
2023-04-02T00:00:10.812Z,8.30
2023-04-02T00:02:48.216Z,8.20
2023-04-02T00:05:20.978Z,8.20
2023-04-02T00:07:48.879Z,8.10
2023-04-02T00:10:32.096Z,8.00
2023-04-02T00:13:11.131Z,8.00
2023-04-02T00:15:42.563Z,7.90
2023-04-02T00:18:16.947Z,7.90
2023-04-02T00:20:46.060Z,7.90
2023-04-02T00:23:13.439Z,7.70
2023-04-02T00:25:43.132Z,7.80
2023-04-02T00:28:18.386Z,7.70
2023-04-02T00:30:56.071Z,7.70
2023-04-02T00:33:24.434Z,7.70
2023-04-02T00:35:52.466Z,7.70
2023-04-02T00:38:25.662Z,7.60
2023-04-02T00:40:54.502Z,7.60
2023-04-02T00:43:22.664Z,7.60
2023-04-02T00:45:54.656Z,7.50
2023-04-02T00:48:33.463Z,7.40
2023-04-02T00:51:01.440Z,7.30
2023-04-02T00:53:29.598Z,7.30
2023-04-02T00:55:58.297Z,7.20
2023-04-02T00:58:36.554Z,7.10
2023-04-02T01:01:04.548Z,7.10
2023-04-02T01:03:36.326Z,7.10
2023-04-02T01:06:11.384Z,7.00
2023-04-02T01:08:43.745Z,7.00
2023-04-02T01:11:10.596Z,7.00
2023-04-02T01:13:41.609Z,7.00
2023-04-02T01:16:27.320Z,7.00
2023-04-02T01:19:01.849Z,7.00
2023-04-02T01:21:36.929Z,6.90
2023-04-02T01:24:05.626Z,6.90
2023-04-02T01:26:32.103Z,6.90
2023-04-02T01:28:58.661Z,6.80
2023-04-02T01:31:27.408Z,6.90
2023-04-02T01:33:54.702Z,6.80
2023-04-02T01:36:27.225Z,6.90
2023-04-02T01:39:02.653Z,6.80
2023-04-02T01:41:40.336Z,6.70
2023-04-02T01:44:12.115Z,6.70
2023-04-02T01:46:40.625Z,6.70
2023-04-02T01:49:21.357Z,6.60
2023-04-02T01:51:53.054Z,6.60
2023-04-02T01:54:20.187Z,6.60
2023-04-02T01:56:47.360Z,6.60
2023-04-02T01:59:15.901Z,6.60
2023-04-02T02:01:45.605Z,6.60
2023-04-02T02:04:13.226Z,6.50
2023-04-02T02:06:39.930Z,6.60
2023-04-02T02:09:07.423Z,6.50
2023-04-02T02:11:36.347Z,6.50
2023-04-02T02:14:12.035Z,6.40
2023-04-02T02:16:42.113Z,6.40
2023-04-02T02:19:19.778Z,6.30
2023-04-02T02:21:48.610Z,6.30
2023-04-02T02:24:26.782Z,6.30
2023-04-02T02:27:11.835Z,6.20
2023-04-02T02:29:39.959Z,6.20
2023-04-02T02:32:07.226Z,6.20
2023-04-02T02:34:43.405Z,6.10
2023-04-02T02:37:16.126Z,6.00
2023-04-02T02:39:43.981Z,6.00
2023-04-02T02:42:22.719Z,6.10
2023-04-02T02:44:50.368Z,6.10
2023-04-02T02:47:19.626Z,6.10
2023-04-02T02:49:49.817Z,6.00
2023-04-02T02:52:19.228Z,6.00
2023-04-02T02:54:51.104Z,6.10
2023-04-02T02:57:22.958Z,6.00
2023-04-02T02:59:50.975Z,6.00
2023-04-02T03:02:17.692Z,6.00
2023-04-02T03:04:49.564Z,6.00
2023-04-02T03:07:16.827Z,5.90
2023-04-02T03:09:54.616Z,5.90
2023-04-02T03:12:51.444Z,5.90
2023-04-02T03:15:32.593Z,5.90
2023-04-02T03:18:03.707Z,5.80
2023-04-02T03:20:36.318Z,5.90
2023-04-02T03:23:12.235Z,5.90
2023-04-02T03:25:41.349Z,5.80
2023-04-02T03:28:12.357Z,5.80
2023-04-02T03:30:42.946Z,5.70
2023-04-02T03:33:13.693Z,5.60
2023-04-02T03:35:46.484Z,5.60
2023-04-02T03:38:19.460Z,5.60
2023-04-02T03:41:06.224Z,5.60
2023-04-02T03:43:45.850Z,5.60
2023-04-02T03:46:32.937Z,5.50
2023-04-02T03:49:02.086Z,5.50
2023-04-02T03:51:40.907Z,5.50
2023-04-02T03:54:12.460Z,5.50
2023-04-02T03:56:42.227Z,5.40
2023-04-02T03:59:16.370Z,5.40
2023-04-02T04:01:45.148Z,5.40
2023-04-02T04:04:14.158Z,5.30
2023-04-02T04:06:45.450Z,5.30
2023-04-02T04:09:18.426Z,5.40
2023-04-02T04:11:46.416Z,5.40
2023-04-02T04:14:18.333Z,5.30
2023-04-02T04:16:49.742Z,5.40
2023-04-02T04:19:19.426Z,5.40
2023-04-02T04:21:46.161Z,5.40
2023-04-02T04:24:17.218Z,5.40
2023-04-02T04:26:55.389Z,5.30
2023-04-02T04:29:40.773Z,5.30
2023-04-02T04:32:19.865Z,5.20
2023-04-02T04:34:51.502Z,5.10
2023-04-02T04:37:25.303Z,5.10
2023-04-02T04:39:55.536Z,5.10
2023-04-02T04:42:27.140Z,5.00
2023-04-02T04:45:09.135Z,5.00
2023-04-02T04:47:37.050Z,5.00
2023-04-02T04:50:03.602Z,4.90
2023-04-02T04:52:33.558Z,4.90
2023-04-02T04:55:00.686Z,5.00
2023-04-02T04:57:27.204Z,5.00
2023-04-02T05:00:14.078Z,5.00
2023-04-02T05:02:48.724Z,4.90
2023-04-02T05:05:29.703Z,4.90
2023-04-02T05:07:59.858Z,4.90
2023-04-02T05:10:37.161Z,4.90
2023-04-02T05:13:22.527Z,4.90
2023-04-02T05:16:01.801Z,4.90
2023-04-02T05:18:32.489Z,4.90
2023-04-02T05:21:08.130Z,4.90
2023-04-02T05:23:37.245Z,5.00
2023-04-02T05:26:06.983Z,4.90
2023-04-02T05:28:44.865Z,4.90
2023-04-02T05:31:41.028Z,4.90
2023-04-02T05:34:08.160Z,4.90
2023-04-02T05:36:34.728Z,4.90
2023-04-02T05:39:01.522Z,4.90
2023-04-02T05:41:36.775Z,4.90
2023-04-02T05:44:06.167Z,4.80
2023-04-02T05:46:37.940Z,4.70
2023-04-02T05:49:06.812Z,4.70
2023-04-02T05:51:39.398Z,4.60
2023-04-02T05:54:06.927Z,4.50
2023-04-02T05:56:37.296Z,4.50
2023-04-02T05:59:20.398Z,4.40
2023-04-02T06:01:49.896Z,4.30
2023-04-02T06:04:20.277Z,4.30
2023-04-02T06:06:52.310Z,4.30
2023-04-02T06:09:23.034Z,4.30
2023-04-02T06:11:52.661Z,4.20
2023-04-02T06:14:19.278Z,4.20
2023-04-02T06:16:46.284Z,4.10
2023-04-02T06:19:32.808Z,4.10
2023-04-02T06:22:07.272Z,4.00
2023-04-02T06:24:36.072Z,4.00
2023-04-02T06:27:06.409Z,4.00
2023-04-02T06:29:38.406Z,4.00
2023-04-02T06:32:06.884Z,4.10
2023-04-02T06:34:36.032Z,4.20
2023-04-02T06:37:25.971Z,4.10
2023-04-02T06:39:52.655Z,4.20
2023-04-02T06:42:25.433Z,4.30
2023-04-02T06:44:52.063Z,4.20
2023-04-02T06:47:23.107Z,4.30
2023-04-02T06:49:56.933Z,4.30
2023-04-02T06:52:26.020Z,4.40
2023-04-02T06:54:52.568Z,4.30
2023-04-02T06:57:19.229Z,4.30
2023-04-02T06:59:46.010Z,4.40
2023-04-02T07:02:21.175Z,4.40
2023-04-02T07:04:47.979Z,4.40
2023-04-02T07:07:14.497Z,4.40
2023-04-02T07:09:42.315Z,4.40
2023-04-02T07:12:12.652Z,4.40
2023-04-02T07:14:39.293Z,4.30
2023-04-02T07:17:05.964Z,4.40
2023-04-02T07:19:32.473Z,4.40
2023-04-02T07:21:59.067Z,4.30
2023-04-02T07:24:25.618Z,4.20
2023-04-02T07:26:52.107Z,4.10
2023-04-02T07:29:19.839Z,4.20
2023-04-02T07:31:46.574Z,4.20
2023-04-02T07:34:13.156Z,4.20
2023-04-02T07:36:39.646Z,4.30
2023-04-02T07:39:06.255Z,4.40
2023-04-02T07:41:32.736Z,4.40
2023-04-02T07:43:59.241Z,4.40
2023-04-02T07:46:26.497Z,4.40
2023-04-02T07:48:53.141Z,4.40
2023-04-02T07:51:21.394Z,4.40
2023-04-02T07:53:55.700Z,4.20
2023-04-02T07:56:23.306Z,4.10
2023-04-02T07:58:49.832Z,4.00
2023-04-02T08:01:17.925Z,4.10
2023-04-02T08:03:44.932Z,4.10
2023-04-02T08:06:12.391Z,4.20
2023-04-02T08:08:39.235Z,4.10
2023-04-02T08:11:06.063Z,4.10
2023-04-02T08:13:32.570Z,4.00
2023-04-02T08:16:03.213Z,3.90
2023-04-02T08:18:32.320Z,3.90
2023-04-02T08:20:58.941Z,3.90
2023-04-02T08:23:26.032Z,3.80
2023-04-02T08:25:53.996Z,3.80
2023-04-02T08:28:21.348Z,3.90
2023-04-02T08:30:49.245Z,3.90
2023-04-02T08:33:16.566Z,3.80
2023-04-02T08:35:43.171Z,3.70
2023-04-02T08:38:16.828Z,3.80
2023-04-02T08:40:45.103Z,3.70
2023-04-02T08:43:18.330Z,3.80
2023-04-02T08:45:51.413Z,3.80
2023-04-02T08:48:18.209Z,3.80
2023-04-02T08:50:45.187Z,3.80
2023-04-02T08:53:25.754Z,3.90
2023-04-02T08:56:17.615Z,4.00
2023-04-02T08:58:49.842Z,4.00
2023-04-02T09:01:21.416Z,4.00
2023-04-02T09:03:49.656Z,4.00
2023-04-02T09:06:17.996Z,4.00
2023-04-02T09:08:46.266Z,4.00
2023-04-02T09:11:18.386Z,3.90
2023-04-02T09:13:46.607Z,3.90
2023-04-02T09:16:17.347Z,3.80
2023-04-02T09:18:44.772Z,3.60
2023-04-02T09:21:23.377Z,3.50
2023-04-02T09:23:50.135Z,3.60
2023-04-02T09:26:23.871Z,3.60
2023-04-02T09:28:51.964Z,3.70
2023-04-02T09:31:25.432Z,3.70
2023-04-02T09:33:54.759Z,3.70
2023-04-02T09:36:34.130Z,3.80
2023-04-02T09:39:06.227Z,3.90
2023-04-02T09:41:36.725Z,3.90
2023-04-02T09:44:20.665Z,3.90
2023-04-02T09:46:48.684Z,4.00
2023-04-02T09:49:16.136Z,3.90
2023-04-02T09:51:42.686Z,3.90
2023-04-02T09:54:14.320Z,4.00
2023-04-02T09:56:41.368Z,4.00
2023-04-02T09:59:13.898Z,4.10
2023-04-02T10:02:06.760Z,4.10
2023-04-02T10:04:48.147Z,4.00
2023-04-02T10:07:34.522Z,3.90
2023-04-02T10:10:02.437Z,4.00
2023-04-02T10:12:30.296Z,4.10
2023-04-02T10:14:57.712Z,4.00
2023-04-02T10:17:27.844Z,4.10
2023-04-02T10:19:56.288Z,4.10
2023-04-02T10:22:23.359Z,4.20
2023-04-02T10:24:50.733Z,4.20
2023-04-02T10:27:37.606Z,4.10
2023-04-02T10:30:13.450Z,4.30
2023-04-02T10:32:58.854Z,4.10
2023-04-02T10:35:44.097Z,4.20
2023-04-02T10:38:26.126Z,4.30
2023-04-02T10:41:05.125Z,4.30
2023-04-02T10:43:50.877Z,4.10
2023-04-02T10:46:25.270Z,4.10
2023-04-02T10:48:52.487Z,4.20
2023-04-02T10:51:38.348Z,4.20
2023-04-02T10:54:29.499Z,4.20
2023-04-02T10:56:58.751Z,4.20
2023-04-02T10:59:30.846Z,4.30
2023-04-02T11:01:59.021Z,4.30
2023-04-02T11:04:37.557Z,4.50
2023-04-02T11:07:14.414Z,4.50
2023-04-02T11:09:43.245Z,4.30
2023-04-02T11:12:19.670Z,4.30
2023-04-02T11:14:46.428Z,4.30
2023-04-02T11:17:14.053Z,4.30
2023-04-02T11:19:40.574Z,4.30
2023-04-02T11:22:07.163Z,4.30
2023-04-02T11:24:44.360Z,4.10
2023-04-02T11:27:11.157Z,4.00
2023-04-02T11:29:45.349Z,3.90
2023-04-02T11:32:15.342Z,3.90
2023-04-02T11:34:41.831Z,4.00
2023-04-02T11:37:09.758Z,4.00
2023-04-02T11:39:46.905Z,4.10
2023-04-02T11:42:20.005Z,4.20
2023-04-02T11:44:46.683Z,4.30
2023-04-02T11:47:23.065Z,4.30
2023-04-02T11:49:57.714Z,4.30
2023-04-02T11:52:27.470Z,4.30
2023-04-02T11:54:55.894Z,4.20
2023-04-02T11:57:30.639Z,4.20
2023-04-02T11:59:59.934Z,4.20
2023-04-02T12:02:36.328Z,4.10
2023-04-02T12:05:09.207Z,3.90
2023-04-02T12:07:38.873Z,3.90
2023-04-02T12:10:15.768Z,3.90
2023-04-02T12:12:43.094Z,4.00
2023-04-02T12:15:30.011Z,4.00
2023-04-02T12:18:04.508Z,3.90
2023-04-02T12:20:31.344Z,3.90
2023-04-02T12:22:58.207Z,4.00
2023-04-02T12:25:31.766Z,4.10
2023-04-02T12:28:10.540Z,4.10
2023-04-02T12:30:38.402Z,4.20
2023-04-02T12:33:38.003Z,4.10
2023-04-02T12:36:17.865Z,4.10
2023-04-02T12:38:44.545Z,4.10
2023-04-02T12:41:37.354Z,4.00
2023-04-02T12:44:06.378Z,4.10
2023-04-02T12:46:34.362Z,4.00
2023-04-02T12:49:05.387Z,4.10
2023-04-02T12:51:32.384Z,4.10
2023-04-02T12:53:59.089Z,4.00
2023-04-02T12:56:25.772Z,4.10
2023-04-02T12:58:53.828Z,3.90
2023-04-02T13:01:23.669Z,4.00
2023-04-02T13:04:02.924Z,3.90
2023-04-02T13:06:30.748Z,3.90
2023-04-02T13:08:57.504Z,3.90
2023-04-02T13:11:33.412Z,3.90
2023-04-02T13:14:01.892Z,3.90
2023-04-02T13:16:32.602Z,3.90
2023-04-02T13:19:17.724Z,4.00
2023-04-02T13:21:44.609Z,4.00
2023-04-02T13:24:21.914Z,4.10
2023-04-02T13:26:49.840Z,4.20
2023-04-02T13:29:25.558Z,4.10
2023-04-02T13:31:53.537Z,4.20
2023-04-02T13:34:20.297Z,4.20
2023-04-02T13:36:47.092Z,4.20
2023-04-02T13:39:13.675Z,4.40
2023-04-02T13:41:42.019Z,4.50
2023-04-02T13:44:14.661Z,4.60
2023-04-02T13:46:41.227Z,4.70
2023-04-02T13:49:09.935Z,4.70
2023-04-02T13:51:38.622Z,4.80
2023-04-02T13:54:08.341Z,4.80
2023-04-02T13:56:36.155Z,4.90
2023-04-02T13:59:02.864Z,5.00
2023-04-02T14:01:30.952Z,5.10
2023-04-02T14:03:57.958Z,5.00
2023-04-02T14:06:32.268Z,5.10
2023-04-02T14:09:09.698Z,5.10
2023-04-02T14:11:36.503Z,5.20
2023-04-02T14:14:24.240Z,5.20
2023-04-02T14:16:56.678Z,5.30
2023-04-02T14:19:46.683Z,5.00
2023-04-02T14:22:16.222Z,5.00
2023-04-02T14:24:50.269Z,5.00
2023-04-02T14:27:16.797Z,5.00
2023-04-02T14:30:03.680Z,4.90
2023-04-02T14:32:39.436Z,4.90
2023-04-02T14:35:13.387Z,4.80
2023-04-02T14:37:52.435Z,4.80
2023-04-02T14:40:31.383Z,4.80
2023-04-02T14:43:00.514Z,4.70
2023-04-02T14:45:30.694Z,4.70
2023-04-02T14:48:03.166Z,4.70
2023-04-02T14:50:31.209Z,4.70
2023-04-02T14:53:00.347Z,4.80
2023-04-02T14:55:31.292Z,4.80
2023-04-02T14:58:01.430Z,4.80
2023-04-02T15:00:39.948Z,4.70
2023-04-02T15:03:12.093Z,4.90
2023-04-02T15:05:49.963Z,4.90
2023-04-02T15:08:26.395Z,4.80
2023-04-02T15:11:08.410Z,4.70
2023-04-02T15:13:42.297Z,4.50
2023-04-02T15:16:11.975Z,4.60
2023-04-02T15:18:38.646Z,4.60
2023-04-02T15:21:29.629Z,4.60
2023-04-02T15:23:56.232Z,4.70
2023-04-02T15:26:41.555Z,4.70
2023-04-02T15:29:25.935Z,4.70
2023-04-02T15:32:00.922Z,4.70
2023-04-02T15:34:32.321Z,4.60
2023-04-02T15:37:04.458Z,4.60
2023-04-02T15:39:31.405Z,4.60
2023-04-02T15:42:07.880Z,4.60
2023-04-02T15:44:36.404Z,4.60
2023-04-02T15:47:17.645Z,4.70
2023-04-02T15:50:03.168Z,4.60
2023-04-02T15:52:35.902Z,4.60
2023-04-02T15:55:14.798Z,4.70
2023-04-02T15:58:00.702Z,4.60
2023-04-02T16:00:31.670Z,4.60
2023-04-02T16:03:07.466Z,4.60
2023-04-02T16:05:50.113Z,4.60
2023-04-02T16:08:33.370Z,4.50
2023-04-02T16:11:00.149Z,4.50
2023-04-02T16:13:29.801Z,4.60
2023-04-02T16:15:56.568Z,4.50
2023-04-02T16:18:43.394Z,4.50
2023-04-02T16:21:12.664Z,4.60
2023-04-02T16:23:40.427Z,4.60
2023-04-02T16:26:25.698Z,4.50
2023-04-02T16:28:58.412Z,4.50
2023-04-02T16:31:29.815Z,4.50
2023-04-02T16:34:05.272Z,4.50
2023-04-02T16:36:31.897Z,4.50
2023-04-02T16:39:07.928Z,4.40
2023-04-02T16:41:51.851Z,4.40
2023-04-02T16:44:36.754Z,4.40
2023-04-02T16:47:19.700Z,4.40
2023-04-02T16:49:57.392Z,4.50
2023-04-02T16:52:33.772Z,4.50
2023-04-02T16:55:11.591Z,4.40
2023-04-02T16:57:38.370Z,4.40
2023-04-02T17:00:11.472Z,4.40
2023-04-02T17:02:57.126Z,4.40
2023-04-02T17:05:34.097Z,4.30
2023-04-02T17:08:16.031Z,4.40
2023-04-02T17:10:49.582Z,4.30
2023-04-02T17:13:34.942Z,4.30
2023-04-02T17:16:04.365Z,4.30
2023-04-02T17:18:31.552Z,4.40
2023-04-02T17:21:02.099Z,4.30
2023-04-02T17:23:29.707Z,4.30
2023-04-02T17:25:58.108Z,4.30
2023-04-02T17:28:26.229Z,4.30
2023-04-02T17:30:57.589Z,4.40
2023-04-02T17:33:26.849Z,4.40
2023-04-02T17:35:53.412Z,4.30
2023-04-02T17:38:38.791Z,4.30
2023-04-02T17:41:31.482Z,4.30
2023-04-02T17:44:02.395Z,4.30
2023-04-02T17:46:37.419Z,4.30
2023-04-02T17:49:23.019Z,4.40
2023-04-02T17:52:00.461Z,4.20
2023-04-02T17:54:27.718Z,4.20
2023-04-02T17:57:09.719Z,4.20
2023-04-02T17:59:45.501Z,4.10
2023-04-02T18:02:18.113Z,4.20
2023-04-02T18:05:03.517Z,4.10
2023-04-02T18:07:48.982Z,4.10
2023-04-02T18:10:22.028Z,4.10
2023-04-02T18:13:01.754Z,4.20
2023-04-02T18:15:31.317Z,4.10
2023-04-02T18:18:11.023Z,4.10
2023-04-02T18:20:55.643Z,4.10
2023-04-02T18:23:40.900Z,4.10
2023-04-02T18:26:17.013Z,4.10
2023-04-02T18:29:02.569Z,4.10
2023-04-02T18:31:46.294Z,4.00
2023-04-02T18:34:31.936Z,4.00
2023-04-02T18:37:17.032Z,4.00
2023-04-02T18:39:54.910Z,3.90
2023-04-02T18:42:37.531Z,3.90
2023-04-02T18:45:27.527Z,4.00
2023-04-02T18:48:06.690Z,4.00
2023-04-02T18:50:34.090Z,4.00
2023-04-02T18:53:08.493Z,3.90
2023-04-02T18:55:36.749Z,3.90
2023-04-02T18:58:12.824Z,4.00
2023-04-02T19:00:40.855Z,4.00
2023-04-02T19:03:27.984Z,3.90
2023-04-02T19:06:03.281Z,3.90
2023-04-02T19:08:51.016Z,4.00
2023-04-02T19:11:18.872Z,4.00
2023-04-02T19:13:45.604Z,3.90
2023-04-02T19:16:30.645Z,4.00
2023-04-02T19:19:16.193Z,4.00
2023-04-02T19:22:21.595Z,4.00
2023-04-02T19:24:54.927Z,4.00
2023-04-02T19:27:34.047Z,3.90
2023-04-02T19:30:17.925Z,3.90
2023-04-02T19:32:54.500Z,3.90
2023-04-02T19:35:24.591Z,3.90
2023-04-02T19:38:09.955Z,3.90
2023-04-02T19:40:48.545Z,3.90
2023-04-02T19:43:15.105Z,3.90
2023-04-02T19:45:42.732Z,3.90
2023-04-02T19:48:11.772Z,3.90
2023-04-02T19:50:38.374Z,3.90
2023-04-02T19:53:04.869Z,3.90
2023-04-02T19:55:31.354Z,3.90
2023-04-02T19:58:04.531Z,3.90
2023-04-02T20:03:35.235Z,3.90
2023-04-02T20:06:02.111Z,4.00
2023-04-02T20:08:28.750Z,4.00
2023-04-02T20:10:55.997Z,4.00
2023-04-02T20:13:22.530Z,3.90
2023-04-02T20:15:49.674Z,3.90
2023-04-02T20:18:16.371Z,3.90
2023-04-02T20:20:45.646Z,3.90
2023-04-02T20:23:12.289Z,3.90
2023-04-02T20:25:44.090Z,3.90
2023-04-02T20:28:10.792Z,3.90
2023-04-02T20:30:37.470Z,3.90
2023-04-02T20:33:04.460Z,3.90
2023-04-02T20:35:34.499Z,3.80
2023-04-02T20:38:03.017Z,3.80
2023-04-02T20:40:29.566Z,3.80
2023-04-02T20:42:56.716Z,3.80
2023-04-02T20:45:24.319Z,3.80
2023-04-02T20:47:50.920Z,3.70
2023-04-02T20:50:17.608Z,3.70
2023-04-02T20:52:44.668Z,3.70
2023-04-02T20:55:11.467Z,3.70
2023-04-02T20:57:38.666Z,3.70
2023-04-02T21:00:07.353Z,3.70
2023-04-02T21:02:34.266Z,3.70
2023-04-02T21:05:00.891Z,3.80
2023-04-02T21:07:27.617Z,3.80
2023-04-02T21:09:54.116Z,3.80
2023-04-02T21:12:20.792Z,3.80
2023-04-02T21:14:48.461Z,3.80
2023-04-02T21:17:16.027Z,3.80
2023-04-02T21:19:42.751Z,3.80
2023-04-02T21:22:09.232Z,3.90
2023-04-02T21:24:35.846Z,3.90
2023-04-02T21:27:02.369Z,3.90
2023-04-02T21:29:28.887Z,3.90
2023-04-02T21:31:55.505Z,4.00
2023-04-02T21:34:22.093Z,3.90
2023-04-02T21:36:48.899Z,4.00
2023-04-02T21:39:18.473Z,4.10
2023-04-02T21:41:46.576Z,4.00
2023-04-02T21:44:14.391Z,4.00
2023-04-02T21:46:44.297Z,4.00
2023-04-02T21:49:12.115Z,4.00
2023-04-02T21:51:39.361Z,4.00
2023-04-02T21:54:06.031Z,4.00
2023-04-02T21:56:34.398Z,4.10
2023-04-02T21:59:02.074Z,4.10
2023-04-02T22:01:30.279Z,4.10
2023-04-02T22:03:57.710Z,4.10
2023-04-02T22:06:25.462Z,4.10
2023-04-02T22:08:56.725Z,4.10
2023-04-02T22:11:25.560Z,4.10
2023-04-02T22:13:52.300Z,4.10
2023-04-02T22:16:20.610Z,4.00
2023-04-02T22:18:47.671Z,4.00
2023-04-02T22:21:14.756Z,4.00
2023-04-02T22:23:41.964Z,4.00
2023-04-02T22:26:09.275Z,4.00
2023-04-02T22:28:36.109Z,4.00
2023-04-02T22:31:05.146Z,3.90
2023-04-02T22:33:32.417Z,4.00
2023-04-02T22:35:58.931Z,4.00
2023-04-02T22:38:25.685Z,4.00
2023-04-02T22:40:52.322Z,3.90
2023-04-02T22:43:18.836Z,3.90
2023-04-02T22:45:45.617Z,3.90
2023-04-02T22:48:12.172Z,3.80
2023-04-02T22:50:38.757Z,3.80
2023-04-02T22:53:05.910Z,3.80
2023-04-02T22:55:32.454Z,3.80
2023-04-02T22:57:58.956Z,3.70
2023-04-02T23:00:25.441Z,3.70
2023-04-02T23:02:52.052Z,3.70
2023-04-02T23:05:18.725Z,3.60
2023-04-02T23:07:45.346Z,3.50
2023-04-02T23:10:11.852Z,3.40
2023-04-02T23:12:38.360Z,3.40
2023-04-02T23:15:05.793Z,3.40
2023-04-02T23:17:32.561Z,3.50
2023-04-02T23:19:59.180Z,3.50
2023-04-02T23:22:25.731Z,3.50
2023-04-02T23:24:54.490Z,3.40
2023-04-02T23:27:21.991Z,3.40
2023-04-02T23:29:49.084Z,3.40
2023-04-02T23:32:16.267Z,3.40
2023-04-02T23:34:43.000Z,3.40
2023-04-02T23:37:09.727Z,3.40
2023-04-02T23:39:36.580Z,3.40
2023-04-02T23:42:03.222Z,3.30
2023-04-02T23:44:30.341Z,3.30
2023-04-02T23:46:56.840Z,3.30
2023-04-02T23:49:23.416Z,3.20
2023-04-02T23:51:49.979Z,3.20
2023-04-02T23:54:16.590Z,3.20
2023-04-02T23:56:43.126Z,3.10
2023-04-02T23:59:09.638Z,3.00
